Time;durP1;ratioP1;P1;durP2;ratioP2;P2;SDS_P1;SDS_P2;PMS_P1;PMS_P2;Temp;Humidity;BMP_temperature;BMP_pressure;BME280_temperature;BME280_humidity;BME280_pressure;Samples;Min_cycle;Max_cycle;Signal;HPM_P1;HPM_P2
2023/03/13 00:01:24;;;;;;;7.60;4.10;;;;;;;0.35;72.43;99359.34;79506;1295;3013589;-61
2023/03/13 00:03:54;;;;;;;8.70;4.50;;;;;;;0.34;72.16;99357.79;78337;1298;3053163;-62
2023/03/13 00:06:22;;;;;;;7.20;3.60;;;;;;;0.32;71.76;99356.11;79557;1297;3011881;-61
2023/03/13 00:08:51;;;;;;;7.10;3.80;;;;;;;0.29;71.89;99353.58;79122;1295;3011663;-62
2023/03/13 00:11:17;;;;;;;7.80;3.90;;;;;;;0.32;71.31;99355.09;79595;1295;3021135;-62
2023/03/13 00:13:44;;;;;;;5.60;3.70;;;;;;;0.36;71.18;99362.40;79555;1298;3013324;-62
2023/03/13 00:16:20;;;;;;;7.50;3.70;;;;;;;0.42;70.65;99361.59;78315;1292;3054890;-62
2023/03/13 00:18:48;;;;;;;10.60;3.80;;;;;;;0.40;70.72;99363.88;79558;1298;3018700;-62
2023/03/13 00:21:15;;;;;;;9.30;4.20;;;;;;;0.38;70.66;99365.98;79577;1296;3011650;-62
2023/03/13 00:23:45;;;;;;;9.20;4.10;;;;;;;0.39;70.30;99365.11;78301;1298;3069358;-61
2023/03/13 00:26:17;;;;;;;9.30;3.70;;;;;;;0.36;70.27;99372.05;79643;1295;3013452;-62
2023/03/13 00:28:45;;;;;;;8.10;3.20;;;;;;;0.38;70.30;99372.19;78376;1298;3050106;-63
2023/03/13 00:31:13;;;;;;;6.30;3.00;;;;;;;0.41;70.05;99369.03;79622;1298;3012965;-61
2023/03/13 00:33:42;;;;;;;6.90;2.80;;;;;;;0.42;69.70;99379.86;79633;1298;3011663;-63
2023/03/13 00:36:19;;;;;;;4.70;2.10;;;;;;;0.46;69.10;99370.30;78345;1297;3053545;-63
2023/03/13 00:38:48;;;;;;;3.00;2.10;;;;;;;0.49;68.70;99374.20;78312;1296;3068327;-61
2023/03/13 00:41:16;;;;;;;6.40;2.30;;;;;;;0.52;68.48;99378.27;79525;1298;3013078;-62
2023/03/13 00:43:48;;;;;;;4.80;1.90;;;;;;;0.49;68.59;99384.71;78267;1298;3050124;-62
2023/03/13 00:46:18;;;;;;;3.50;2.40;;;;;;;0.46;68.25;99388.23;79658;1297;3012998;-62
2023/03/13 00:48:47;;;;;;;4.00;1.90;;;;;;;0.44;68.66;99389.13;78446;1297;3026404;-62
2023/03/13 00:51:16;;;;;;;3.50;1.60;;;;;;;0.45;68.95;99392.73;79644;1297;3011673;-62
2023/03/13 00:53:45;;;;;;;3.80;1.90;;;;;;;0.39;69.12;99399.42;79068;1296;3011621;-61
2023/03/13 00:56:14;;;;;;;3.90;1.40;;;;;;;0.37;69.17;99398.40;79439;1298;3013417;-62
2023/03/13 00:58:42;;;;;;;4.40;1.50;;;;;;;0.46;69.42;99393.06;79410;1294;3011625;-62
2023/03/13 01:01:18;;;;;;;4.80;2.10;;;;;;;0.48;69.23;99396.11;78101;1298;3049704;-60
2023/03/13 01:03:48;;;;;;;3.60;2.00;;;;;;;0.55;69.28;99403.04;78062;1297;3053903;-63
2023/03/13 01:06:16;;;;;;;7.10;2.40;;;;;;;0.48;69.62;99403.52;79469;1297;3011621;-61
2023/03/13 01:08:45;;;;;;;4.20;2.10;;;;;;;0.42;70.11;99410.20;78278;1298;3026212;-62
2023/03/13 01:11:14;;;;;;;4.80;2.20;;;;;;;0.39;70.26;99410.95;79459;1298;3013265;-62
2023/03/13 01:13:43;;;;;;;6.30;2.30;;;;;;;0.37;70.31;99411.67;79035;1295;3013121;-60
2023/03/13 01:16:17;;;;;;;5.40;2.70;;;;;;;0.36;70.39;99411.52;79474;1294;3011391;-60
2023/03/13 01:18:47;;;;;;;8.00;3.20;;;;;;;0.34;70.63;99414.65;78297;1298;3058098;-62
2023/03/13 01:21:14;;;;;;;7.60;4.40;;;;;;;0.35;70.45;99418.60;79480;1294;3011756;-61
2023/03/13 01:23:40;;;;;;;4.90;3.10;;;;;;;0.26;70.86;99419.13;79437;1296;3011544;-61
2023/03/13 01:26:14;;;;;;;7.70;3.40;;;;;;;0.28;70.60;99424.94;78279;1298;3051994;-61
2023/03/13 01:28:43;;;;;;;10.80;4.10;;;;;;;0.25;70.98;99428.11;79579;1298;3013240;-62
2023/03/13 01:31:31;;;;;;;9.60;4.60;;;;;;;0.32;70.70;99430.37;78298;1297;3028126;-60
2023/03/13 01:34:02;;;;;;;12.50;4.70;;;;;;;0.27;70.82;99438.39;78318;1296;3051444;-61
2023/03/13 01:36:30;;;;;;;19.80;7.80;;;;;;;0.17;70.74;99444.08;79647;1296;3011824;-62
2023/03/13 01:38:59;;;;;;;20.00;7.80;;;;;;;0.18;70.83;99446.66;79053;1295;3012033;-60
2023/03/13 01:41:29;;;;;;;18.80;8.10;;;;;;;0.14;70.65;99450.36;79244;1298;3011755;-62
2023/03/13 01:43:58;;;;;;;14.40;7.40;;;;;;;0.04;70.98;99457.25;78185;1298;3026811;-62
2023/03/13 01:46:30;;;;;;;16.90;7.40;;;;;;;-0.03;70.88;99459.60;79516;1298;3011545;-61
2023/03/13 01:49:32;;;;;;;13.80;7.30;;;;;;;-0.02;70.86;99464.75;78235;1298;3052709;-62
2023/03/13 01:52:25;;;;;;;14.60;6.10;;;;;;;-0.02;70.57;99464.23;78344;1298;3069390;-61
2023/03/13 01:55:33;;;;;;;11.30;5.60;;;;;;;-0.06;70.78;99463.27;78269;1303;3051042;-61
2023/03/13 01:58:00;;;;;;;13.40;6.40;;;;;;;-0.08;70.71;99471.77;79528;1298;3012895;-62
2023/03/13 02:00:30;;;;;;;7.40;5.40;;;;;;;-0.06;70.92;99475.16;79353;1295;3011768;-60
2023/03/13 02:03:06;;;;;;;12.20;5.90;;;;;;;-0.10;70.61;99478.50;78355;1298;3050125;-60
2023/03/13 02:05:35;;;;;;;11.30;4.90;;;;;;;-0.13;70.61;99489.40;79534;1296;3011245;-62
2023/03/13 02:08:10;;;;;;;8.80;5.10;;;;;;;-0.15;70.64;99489.27;78030;1301;3052253;-61
2023/03/13 02:10:43;;;;;;;9.00;5.10;;;;;;;-0.09;70.61;99496.05;79107;1295;3011556;-62
2023/03/13 02:13:16;;;;;;;9.20;5.20;;;;;;;-0.17;70.81;99505.12;78199;1296;3069294;-60
2023/03/13 02:15:43;;;;;;;18.50;6.00;;;;;;;-0.18;70.97;99511.34;79461;1298;3013152;-62
2023/03/13 02:18:10;;;;;;;11.20;5.80;;;;;;;-0.14;70.73;99515.08;79374;1294;3011902;-62
2023/03/13 02:20:38;;;;;;;8.80;4.70;;;;;;;-0.11;70.92;99522.27;78257;1296;3052823;-60
2023/03/13 02:23:21;;;;;;;11.80;5.30;;;;;;;-0.01;70.48;99524.69;79408;1301;3011752;-60
2023/03/13 02:25:53;;;;;;;10.60;5.50;;;;;;;-0.04;70.74;99525.08;78330;1298;3053326;-61
2023/03/13 02:28:33;;;;;;;14.40;5.20;;;;;;;-0.04;70.57;99529.90;79528;1298;3011559;-63
2023/03/13 02:31:03;;;;;;;9.60;5.30;;;;;;;-0.07;70.78;99533.39;78261;1298;3068613;-61
2023/03/13 02:33:34;;;;;;;10.70;5.10;;;;;;;-0.03;70.88;99538.31;79579;1295;3013889;-61
2023/03/13 02:36:08;;;;;;;16.00;5.80;;;;;;;-0.09;70.89;99540.30;78306;1298;3050223;-63
2023/03/13 02:38:44;;;;;;;12.70;5.80;;;;;;;-0.18;71.37;99544.05;79559;1297;3012664;-61
2023/03/13 02:41:12;;;;;;;13.00;5.90;;;;;;;-0.12;71.07;99547.23;78321;1295;3050997;-62
2023/03/13 02:43:39;;;;;;;14.30;5.90;;;;;;;-0.11;71.15;99543.09;79541;1298;3013673;-60
2023/03/13 02:46:13;;;;;;;14.70;6.60;;;;;;;-0.04;70.75;99547.45;79516;1294;3012830;-62
2023/03/13 02:48:47;;;;;;;13.20;7.10;;;;;;;-0.07;70.79;99552.33;78173;1298;3051655;-62
2023/03/13 02:51:29;;;;;;;16.30;7.40;;;;;;;-0.10;70.90;99558.23;79563;1295;3013676;-62
2023/03/13 02:54:05;;;;;;;15.20;7.60;;;;;;;-0.05;70.46;99559.19;78289;1298;3049458;-60
2023/03/13 02:56:33;;;;;;;13.10;7.20;;;;;;;-0.08;70.67;99564.22;79493;1295;3013387;-61
2023/03/13 02:59:02;;;;;;;17.20;8.20;;;;;;;0.03;70.46;99572.30;78390;1297;3026555;-59
2023/03/13 03:01:29;;;;;;;15.40;7.70;;;;;;;-0.14;70.74;99574.13;79556;1298;3013224;-59
2023/03/13 03:03:56;;;;;;;14.90;7.80;;;;;;;-0.26;71.29;99582.92;79545;1298;3013234;-60
2023/03/13 03:06:27;;;;;;;21.40;8.70;;;;;;;-0.28;71.16;99589.66;78375;1297;3050832;-61
2023/03/13 03:08:54;;;;;;;16.10;7.70;;;;;;;-0.35;71.64;99589.94;79649;1295;3013128;-59
2023/03/13 03:11:20;;;;;;;17.60;8.10;;;;;;;-0.39;71.71;99594.46;79597;1298;3011619;-60
2023/03/13 03:13:53;;;;;;;17.00;7.90;;;;;;;-0.34;71.37;99597.48;78248;1298;3052159;-60
2023/03/13 03:16:21;;;;;;;16.50;8.40;;;;;;;-0.30;71.38;99597.60;79532;1298;3013101;-63
2023/03/13 03:18:48;;;;;;;17.10;8.40;;;;;;;-0.32;70.98;99601.77;79191;1298;3013134;-62
2023/03/13 03:21:16;;;;;;;17.30;8.40;;;;;;;-0.26;70.86;99606.50;78175;1300;3049642;-61
2023/03/13 03:23:42;;;;;;;22.70;9.00;;;;;;;-0.24;70.95;99609.58;79301;1301;3013135;-62
2023/03/13 03:26:14;;;;;;;17.10;8.60;;;;;;;-0.26;71.02;99606.32;78810;1295;3012215;-63
2023/03/13 03:28:41;;;;;;;26.10;9.00;;;;;;;-0.29;70.35;99614.46;79497;1295;3021024;-61
2023/03/13 03:31:14;;;;;;;16.70;8.80;;;;;;;-0.26;70.46;99614.59;78904;1298;3011838;-59
2023/03/13 03:33:42;;;;;;;16.50;8.30;;;;;;;-0.27;70.14;99618.05;79572;1298;3013260;-61
2023/03/13 03:36:14;;;;;;;25.60;9.40;;;;;;;-0.24;70.03;99622.66;78260;1298;3027903;-63
2023/03/13 03:38:42;;;;;;;20.40;8.30;;;;;;;-0.32;69.86;99626.72;79344;1301;3011328;-61
2023/03/13 03:41:12;;;;;;;21.80;9.80;;;;;;;-0.30;69.80;99629.96;78232;1308;3051812;-62
2023/03/13 03:43:39;;;;;;;17.40;8.00;;;;;;;-0.31;69.34;99634.12;79449;1295;3013373;-61
2023/03/13 03:46:06;;;;;;;21.40;8.80;;;;;;;-0.26;68.80;99638.35;79486;1295;3011599;-62
2023/03/13 03:48:34;;;;;;;17.40;7.80;;;;;;;-0.30;68.85;99645.44;78235;1298;3050748;-60
2023/03/13 03:51:02;;;;;;;15.70;8.20;;;;;;;-0.30;68.82;99649.59;79310;1301;3013509;-61
2023/03/13 03:53:29;;;;;;;20.40;9.00;;;;;;;-0.30;68.66;99654.41;79455;1298;3013374;-61
2023/03/13 03:55:58;;;;;;;20.70;7.60;;;;;;;-0.23;68.20;99663.96;78217;1300;3029193;-61
2023/03/13 03:58:24;;;;;;;16.10;7.40;;;;;;;-0.31;67.92;99663.38;79358;1301;3012911;-62
2023/03/13 04:01:00;;;;;;;11.50;6.10;;;;;;;-0.27;67.81;99667.80;78201;1302;3053569;-61
2023/03/13 04:03:28;;;;;;;16.00;6.90;;;;;;;-0.18;67.71;99677.50;79531;1298;3013819;-60
2023/03/13 04:05:55;;;;;;;17.00;8.40;;;;;;;-0.19;67.35;99678.73;79444;1298;3011494;-62
2023/03/13 04:08:26;;;;;;;15.80;7.10;;;;;;;-0.15;67.37;99675.05;78194;1296;3069516;-60
2023/03/13 04:10:57;;;;;;;15.10;6.80;;;;;;;-0.10;67.07;99687.02;79453;1300;3011801;-60
2023/03/13 04:13:26;;;;;;;12.30;6.60;;;;;;;-0.16;67.48;99687.29;78088;1300;3057131;-60
2023/03/13 04:15:54;;;;;;;15.90;7.00;;;;;;;-0.14;67.35;99693.30;79540;1298;3014807;-61
2023/03/13 04:18:21;;;;;;;16.70;7.60;;;;;;;-0.11;67.47;99699.63;79453;1296;3011745;-62
2023/03/13 04:21:02;;;;;;;14.60;7.10;;;;;;;-0.10;67.32;99702.88;78226;1298;3053180;-61
2023/03/13 04:23:30;;;;;;;11.50;7.00;;;;;;;-0.11;67.75;99706.67;78126;1309;3052757;-61
2023/03/13 04:25:57;;;;;;;18.60;7.80;;;;;;;-0.15;67.85;99712.40;79435;1298;3013151;-63
2023/03/13 04:28:23;;;;;;;14.20;7.00;;;;;;;-0.07;67.96;99716.27;79250;1300;3011589;-63
2023/03/13 04:30:57;;;;;;;17.90;7.30;;;;;;;-0.08;68.03;99732.13;78104;1301;3050005;-61
2023/03/13 04:33:50;;;;;;;13.80;6.90;;;;;;;-0.04;68.10;99730.70;78222;1308;3053369;-61
2023/03/13 04:36:51;;;;;;;19.30;6.90;;;;;;;-0.00;67.89;99744.08;78236;1299;3051191;-60
2023/03/13 04:39:37;;;;;;;16.90;6.70;;;;;;;-0.01;68.04;99746.66;78252;1298;3053447;-61
2023/03/13 04:42:35;;;;;;;13.90;6.00;;;;;;;-0.01;68.09;99751.49;77794;1305;3052000;-60
2023/03/13 04:45:13;;;;;;;14.50;5.70;;;;;;;0.13;67.81;99748.21;78292;1301;3068963;-61
2023/03/13 04:47:57;;;;;;;13.40;5.70;;;;;;;0.15;67.24;99756.63;78074;1300;3053671;-61
2023/03/13 04:50:39;;;;;;;17.70;6.20;;;;;;;0.12;67.12;99762.35;78076;1296;3057935;-62
2023/03/13 04:53:27;;;;;;;10.60;4.30;;;;;;;0.10;66.68;99768.23;78124;1300;3051055;-61
2023/03/13 04:56:05;;;;;;;11.20;4.10;;;;;;;0.08;66.68;99771.17;78256;1301;3054574;-60
2023/03/13 04:58:34;;;;;;;9.40;3.90;;;;;;;0.09;66.80;99779.44;79312;1301;3013329;-60
2023/03/13 05:01:11;;;;;;;7.20;3.50;;;;;;;0.13;67.03;99782.84;78055;1300;3053467;-61
2023/03/13 05:04:02;;;;;;;10.10;4.20;;;;;;;0.12;67.32;99787.31;77879;1308;3051955;-61
2023/03/13 05:06:49;;;;;;;6.30;3.40;;;;;;;0.15;67.50;99790.21;78117;1301;3069705;-61
2023/03/13 05:09:37;;;;;;;6.10;3.30;;;;;;;0.29;67.23;99791.77;78098;1309;3051913;-63
2023/03/13 05:12:24;;;;;;;7.10;3.60;;;;;;;0.24;67.66;99802.17;78051;1301;3056843;-61
2023/03/13 05:15:16;;;;;;;5.70;3.20;;;;;;;0.27;67.41;99808.33;78109;1308;3049979;-62
2023/03/13 05:17:56;;;;;;;4.90;3.00;;;;;;;0.17;67.57;99808.10;78039;1296;3053300;-61
2023/03/13 05:20:23;;;;;;;9.80;3.40;;;;;;;0.20;67.83;99815.14;79276;1311;3012531;-62
2023/03/13 05:23:02;;;;;;;10.50;4.40;;;;;;;0.20;67.95;99816.86;78002;1301;3051918;-60
2023/03/13 05:25:53;;;;;;;12.90;5.40;;;;;;;0.19;68.12;99822.22;77808;1306;3069752;-60
2023/03/13 05:28:41;;;;;;;13.30;5.00;;;;;;;0.24;68.62;99825.93;78050;1306;3051635;-62
2023/03/13 05:31:22;;;;;;;10.90;4.50;;;;;;;0.28;68.25;99833.13;78013;1300;3056842;-61
2023/03/13 05:33:55;;;;;;;7.70;3.50;;;;;;;0.33;68.08;99836.49;79237;1298;3012334;-61
2023/03/13 05:36:41;;;;;;;6.80;3.40;;;;;;;0.28;68.13;99838.64;77983;1295;3054773;-61
2023/03/13 05:39:36;;;;;;;7.30;3.50;;;;;;;0.25;68.73;99846.26;78072;1301;3050758;-60
2023/03/13 05:42:25;;;;;;;6.70;3.10;;;;;;;0.33;68.72;99844.27;78018;1300;3053557;-60
2023/03/13 05:45:08;;;;;;;5.20;3.00;;;;;;;0.39;68.53;99851.60;78044;1301;3052902;-61
2023/03/13 05:48:02;;;;;;;6.50;3.40;;;;;;;0.44;68.42;99853.77;77864;1300;3070154;-61
2023/03/13 05:50:55;;;;;;;6.70;3.50;;;;;;;0.52;68.45;99860.23;77848;1296;3053424;-61
2023/03/13 05:53:43;;;;;;;8.70;3.60;;;;;;;0.60;68.24;99868.74;78008;1301;3057592;-61
2023/03/13 05:56:32;;;;;;;6.50;3.10;;;;;;;0.63;68.41;99868.70;78087;1301;3051146;-61
2023/03/13 05:59:13;;;;;;;6.30;3.60;;;;;;;0.66;67.67;99875.02;78085;1296;3055027;-62
2023/03/13 06:01:49;;;;;;;5.40;2.70;;;;;;;0.71;67.39;99876.52;78047;1307;3051552;-62
2023/03/13 06:04:32;;;;;;;4.70;2.70;;;;;;;0.66;66.56;99875.55;78031;1298;3053803;-59
2023/03/13 06:06:59;;;;;;;4.20;2.40;;;;;;;0.82;66.44;99866.19;79283;1300;3013020;-62
2023/03/13 06:09:34;;;;;;;4.10;2.60;;;;;;;0.94;65.71;99868.09;77941;1301;3050500;-63
2023/03/13 06:12:01;;;;;;;3.70;2.20;;;;;;;0.90;64.75;99881.42;79427;1296;3013082;-61
2023/03/13 06:14:29;;;;;;;5.80;2.70;;;;;;;0.91;63.71;99883.83;79221;1295;3011632;-63
2023/03/13 06:17:21;;;;;;;3.80;2.50;;;;;;;0.97;63.67;99884.27;77827;1301;3051644;-64
2023/03/13 06:19:48;;;;;;;6.40;2.40;;;;;;;1.04;62.82;99888.82;79369;1301;3012601;-62
2023/03/13 06:22:16;;;;;;;4.70;2.40;;;;;;;1.08;62.27;99897.05;79215;1300;3011634;-66
2023/03/13 06:24:45;;;;;;;6.20;2.00;;;;;;;1.18;61.59;99906.04;78144;1296;3052043;-63
2023/03/13 06:27:12;;;;;;;3.60;2.00;;;;;;;1.13;60.38;99906.97;79203;1297;3013845;-62
2023/03/13 06:29:39;;;;;;;3.60;1.80;;;;;;;1.25;60.54;99907.47;79272;1295;3013243;-63
2023/03/13 06:32:07;;;;;;;2.70;1.50;;;;;;;1.31;58.89;99911.02;78252;1298;3050636;-62
2023/03/13 06:34:39;;;;;;;1.90;1.00;;;;;;;1.28;57.78;99916.77;79303;1301;3011943;-63
2023/03/13 06:37:07;;;;;;;3.90;1.90;;;;;;;1.25;58.00;99922.31;77977;1301;3051970;-62
2023/03/13 06:39:34;;;;;;;4.10;1.90;;;;;;;1.34;58.00;99923.05;79349;1301;3022240;-63
2023/03/13 06:42:00;;;;;;;3.30;2.10;;;;;;;1.48;57.53;99925.59;79257;1300;3011725;-62
2023/03/13 06:44:28;;;;;;;5.60;2.00;;;;;;;1.53;56.99;99929.98;78341;1297;3028347;-62
2023/03/13 06:46:55;;;;;;;6.90;1.90;;;;;;;1.63;56.86;99934.83;79598;1301;3013365;-69
2023/03/13 06:49:22;;;;;;;3.60;2.30;;;;;;;1.72;56.38;99936.59;79401;1301;3011593;-64
2023/03/13 06:51:52;;;;;;;5.50;1.80;;;;;;;1.85;55.95;99937.93;78068;1302;3051445;-65
2023/03/13 06:54:19;;;;;;;4.90;1.90;;;;;;;1.72;55.41;99945.40;79286;1301;3013016;-63
2023/03/13 06:56:45;;;;;;;7.20;2.20;;;;;;;1.70;54.24;99951.83;79260;1298;3011791;-62
2023/03/13 06:59:13;;;;;;;5.10;2.30;;;;;;;1.78;53.65;99952.39;78297;1301;3050912;-62
2023/03/13 07:01:40;;;;;;;3.40;1.70;;;;;;;1.88;53.71;99953.44;79565;1295;3013633;-63
2023/03/13 07:04:15;;;;;;;3.50;1.60;;;;;;;1.93;53.56;99956.27;78207;1300;3053180;-61
2023/03/13 07:06:43;;;;;;;4.70;1.60;;;;;;;1.88;52.97;99961.20;79508;1300;3013262;-65
2023/03/13 07:09:10;;;;;;;4.50;1.50;;;;;;;1.94;53.08;99963.86;79340;1297;3011973;-63
2023/03/13 07:11:39;;;;;;;6.40;1.90;;;;;;;2.17;53.05;99971.76;78050;1301;3056788;-63
2023/03/13 07:14:05;;;;;;;7.20;2.60;;;;;;;2.14;51.73;99975.43;79206;1298;3020841;-60
2023/03/13 07:16:32;;;;;;;7.80;2.70;;;;;;;1.99;51.80;99977.60;79302;1296;3011919;-64
2023/03/13 07:19:04;;;;;;;6.60;3.30;;;;;;;2.03;51.96;99974.41;78132;1295;3052807;-62
2023/03/13 07:21:32;;;;;;;5.00;2.10;;;;;;;2.04;51.76;99972.33;79224;1301;3013325;-64
2023/03/13 07:23:59;;;;;;;3.60;1.50;;;;;;;2.07;51.48;99974.17;79262;1295;3011939;-63
2023/03/13 07:26:27;;;;;;;4.80;1.90;;;;;;;1.80;51.01;99980.51;78046;1301;3057686;-62
2023/03/13 07:28:54;;;;;;;3.10;1.60;;;;;;;1.85;50.97;99980.62;79240;1297;3013135;-62
2023/03/13 07:31:23;;;;;;;5.20;1.60;;;;;;;1.87;50.96;99981.27;79257;1299;3011456;-61
2023/03/13 07:33:55;;;;;;;2.90;1.30;;;;;;;1.96;50.17;99980.42;78394;1301;3053807;-63
2023/03/13 07:36:21;;;;;;;3.60;1.40;;;;;;;2.18;49.79;99981.77;79370;1298;3011653;-64
2023/03/13 07:38:51;;;;;;;4.40;2.10;;;;;;;2.07;48.70;99989.55;78202;1295;3068774;-61
2023/03/13 07:41:18;;;;;;;4.60;1.80;;;;;;;2.19;48.53;99980.36;79518;1298;3013500;-63
2023/03/13 07:43:45;;;;;;;4.00;1.60;;;;;;;2.39;47.76;99983.45;79275;1295;3011634;-62
2023/03/13 07:46:17;;;;;;;3.00;1.20;;;;;;;2.32;47.36;99988.41;78052;1300;3053788;-61
2023/03/13 07:48:44;;;;;;;3.80;1.40;;;;;;;2.40;47.41;99987.59;79272;1295;3011882;-64
2023/03/13 07:51:13;;;;;;;4.00;1.90;;;;;;;2.42;46.68;99991.35;78029;1300;3028251;-60
2023/03/13 07:53:40;;;;;;;2.70;1.00;;;;;;;2.48;46.41;99990.73;79394;1299;3011745;-63
2023/03/13 07:56:09;;;;;;;2.50;1.10;;;;;;;2.49;46.33;99997.09;79297;1295;3013451;-62
2023/03/13 07:58:38;;;;;;;4.20;1.50;;;;;;;2.47;45.59;99994.54;78005;1300;3056696;-63
2023/03/13 08:01:12;;;;;;;2.60;1.30;;;;;;;2.26;45.35;99991.13;79225;1296;3012178;-63
2023/03/13 08:03:39;;;;;;;;;;;;;;;2.43;45.55;99992.02;78142;1300;3050992;-63
2023/03/13 08:06:11;;;;;;;2.80;0.70;;;;;;;2.20;44.40;99996.42;79266;1298;3013013;-63
2023/03/13 08:08:40;;;;;;;4.60;1.10;;;;;;;2.28;45.32;99995.58;78025;1300;3069337;-64
2023/03/13 08:11:18;;;;;;;4.70;1.30;;;;;;;2.32;45.11;99993.77;79272;1298;3018851;-64
2023/03/13 08:14:00;;;;;;;1.30;0.60;;;;;;;2.66;45.89;99991.41;77969;1301;3050916;-62
2023/03/13 08:16:29;;;;;;;1.00;0.70;;;;;;;2.67;45.72;99996.92;79237;1296;3013072;-62
2023/03/13 08:18:56;;;;;;;2.20;0.90;;;;;;;2.63;45.98;99996.48;79216;1301;3011457;-62
2023/03/13 08:21:26;;;;;;;1.80;0.80;;;;;;;2.88;46.14;99994.94;78051;1301;3050942;-62
2023/03/13 08:23:54;;;;;;;3.20;0.90;;;;;;;3.01;45.72;99991.57;79303;1295;3013421;-64
2023/03/13 08:26:25;;;;;;;1.90;0.90;;;;;;;3.11;45.51;99995.34;77989;1297;3051210;-63
2023/03/13 08:28:54;;;;;;;3.40;1.10;;;;;;;3.43;45.66;99998.42;79400;1296;3011751;-63
2023/03/13 08:31:24;;;;;;;2.50;1.30;;;;;;;3.48;43.92;100005.24;78119;1295;3027500;-60
2023/03/13 08:33:51;;;;;;;4.30;1.50;;;;;;;3.53;44.63;100007.58;79238;1296;3013462;-62
2023/03/13 08:36:22;;;;;;;3.80;1.60;;;;;;;3.68;43.59;100013.79;79414;1299;3012190;-62
2023/03/13 08:38:50;;;;;;;5.00;1.90;;;;;;;3.63;42.84;100017.72;78033;1298;3050432;-66
2023/03/13 08:41:19;;;;;;;10.20;1.80;;;;;;;3.73;42.90;100018.86;79333;1295;3013333;-63
2023/03/13 08:43:46;;;;;;;6.60;1.50;;;;;;;3.79;43.25;100023.95;79475;1295;3011594;-62
2023/03/13 08:46:14;;;;;;;2.80;1.50;;;;;;;3.91;42.62;100028.17;78037;1300;3050166;-63
2023/03/13 08:48:41;;;;;;;3.60;1.50;;;;;;;3.82;42.44;100032.52;79427;1295;3013682;-64
2023/03/13 08:51:09;;;;;;;3.80;1.60;;;;;;;3.94;42.64;100031.05;79228;1295;3011947;-60
2023/03/13 08:53:37;;;;;;;4.10;1.20;;;;;;;3.97;42.13;100036.69;78236;1301;3053094;-61
2023/03/13 08:56:13;;;;;;;4.20;1.20;;;;;;;4.12;41.55;100037.02;79386;1300;3012293;-62
2023/03/13 08:58:42;;;;;;;2.90;0.90;;;;;;;4.24;40.72;100039.48;78129;1300;3051680;-62
2023/03/13 09:01:10;;;;;;;2.00;1.00;;;;;;;4.21;40.11;100043.20;79353;1300;3018416;-61
2023/03/13 09:03:38;;;;;;;2.50;1.10;;;;;;;4.09;39.95;100039.35;79311;1295;3013504;-64
2023/03/13 09:06:06;;;;;;;1.80;0.80;;;;;;;4.27;40.65;100039.38;78039;1299;3051086;-64
2023/03/13 09:08:41;;;;;;;1.00;0.70;;;;;;;4.45;40.19;100034.79;78767;1298;3011694;-63
2023/03/13 09:11:14;;;;;;;3.90;1.00;;;;;;;4.46;40.07;100031.45;79220;1295;3011365;-61
2023/03/13 09:13:47;;;;;;;2.60;1.20;;;;;;;4.57;41.17;100034.30;78006;1301;3052938;-61
2023/03/13 09:16:22;;;;;;;3.10;0.90;;;;;;;4.59;40.84;100035.11;79612;1299;3012900;-62
2023/03/13 09:18:51;;;;;;;1.70;0.70;;;;;;;4.66;40.81;100037.34;78035;1301;3052131;-65
2023/03/13 09:21:24;;;;;;;2.30;0.90;;;;;;;4.63;39.92;100036.20;79343;1296;3013490;-64
2023/03/13 09:23:51;;;;;;;2.10;0.80;;;;;;;4.43;40.62;100035.53;78057;1295;3052127;-61
2023/03/13 09:26:19;;;;;;;2.50;1.20;;;;;;;4.72;40.76;100036.46;79219;1299;3019241;-60
2023/03/13 09:28:45;;;;;;;2.60;1.10;;;;;;;4.75;41.27;100034.49;79240;1301;3011764;-60
2023/03/13 09:31:18;;;;;;;2.00;1.10;;;;;;;4.81;41.36;100035.02;78027;1296;3029106;-64
2023/03/13 09:33:46;;;;;;;4.10;1.20;;;;;;;5.15;40.24;100031.44;79324;1301;3011583;-61
2023/03/13 09:36:14;;;;;;;1.80;1.00;;;;;;;5.14;39.81;100038.77;78230;1296;3056862;-60
2023/03/13 09:38:41;;;;;;;1.80;0.90;;;;;;;5.26;40.00;100031.86;79312;1295;3013570;-62
2023/03/13 09:41:17;;;;;;;3.70;1.30;;;;;;;5.41;39.75;100032.07;79250;1295;3011688;-63
2023/03/13 09:44:06;;;;;;;3.70;1.40;;;;;;;5.59;40.48;100035.19;78099;1299;3052447;-63
2023/03/13 09:46:52;;;;;;;7.20;1.20;;;;;;;5.69;39.35;100038.54;78022;1300;3051782;-63
2023/03/13 09:49:41;;;;;;;3.10;1.20;;;;;;;5.59;39.18;100031.54;78044;1296;3069674;-59
2023/03/13 09:52:23;;;;;;;2.20;0.90;;;;;;;5.85;39.77;100026.90;78052;1297;3051910;-60
2023/03/13 09:54:56;;;;;;;2.50;1.00;;;;;;;5.79;38.25;100033.88;78091;1300;3056814;-60
2023/03/13 09:57:30;;;;;;;1.30;0.60;;;;;;;5.79;37.18;100032.30;78052;1300;3049321;-60
2023/03/13 10:00:06;;;;;;;2.80;0.90;;;;;;;5.65;36.63;100036.73;79364;1295;3011738;-61
2023/03/13 10:02:36;;;;;;;2.00;0.80;;;;;;;5.46;36.92;100032.98;78012;1295;3051272;-61
2023/03/13 10:05:16;;;;;;;1.20;1.00;;;;;;;5.65;37.29;100030.48;79295;1300;3013516;-62
2023/03/13 10:07:43;;;;;;;2.80;0.90;;;;;;;5.97;36.82;100024.07;78080;1300;3053104;-61
2023/03/13 10:10:28;;;;;;;4.60;1.10;;;;;;;6.27;36.71;100022.77;79299;1295;3013749;-61
2023/03/13 10:12:58;;;;;;;2.30;0.80;;;;;;;6.44;36.50;100026.55;78030;1301;3056945;-61
2023/03/13 10:15:56;;;;;;;3.60;1.50;;;;;;;6.53;36.05;100025.17;79356;1300;3013386;-61
2023/03/13 10:18:24;;;;;;;2.70;1.10;;;;;;;6.56;35.44;100015.13;78039;1300;3053836;-63
2023/03/13 10:21:03;;;;;;;4.20;1.40;;;;;;;6.70;34.91;100020.57;79664;1300;3013602;-62
2023/03/13 10:23:39;;;;;;;3.90;1.10;;;;;;;6.76;33.99;100018.25;78168;1301;3052870;-60
2023/03/13 10:26:18;;;;;;;3.40;1.40;;;;;;;6.56;33.39;100015.50;78140;1296;3068756;-63
2023/03/13 10:28:47;;;;;;;5.10;1.80;;;;;;;6.53;34.56;100012.81;78091;1300;3050979;-61
2023/03/13 10:31:35;;;;;;;3.90;1.20;;;;;;;6.67;35.00;100012.83;79217;1295;3013909;-62
2023/03/13 10:34:07;;;;;;;4.10;1.50;;;;;;;7.02;34.78;100008.81;78155;1296;3053562;-61
2023/03/13 10:36:48;;;;;;;3.40;1.50;;;;;;;7.16;34.59;100006.02;79268;1295;3012821;-62
2023/03/13 10:39:22;;;;;;;3.90;1.20;;;;;;;7.22;34.63;100006.83;78071;1295;3052454;-60
2023/03/13 10:41:50;;;;;;;3.60;1.70;;;;;;;7.48;34.78;99999.73;79380;1299;3014748;-63
2023/03/13 10:44:19;;;;;;;5.40;1.60;;;;;;;7.73;34.97;100002.91;79575;1295;3011562;-63
2023/03/13 10:46:48;;;;;;;3.70;1.50;;;;;;;8.00;34.32;99997.11;78115;1301;3055918;-63
2023/03/13 10:49:16;;;;;;;2.90;1.40;;;;;;;8.02;33.87;99993.55;79359;1296;3012911;-62
2023/03/13 10:51:47;;;;;;;5.60;2.00;;;;;;;7.95;34.29;99995.42;78030;1295;3027280;-60
2023/03/13 10:54:15;;;;;;;5.70;1.90;;;;;;;7.80;34.25;99991.97;79474;1301;3013000;-63
2023/03/13 10:56:44;;;;;;;5.50;2.70;;;;;;;7.64;35.06;99990.72;78878;1300;3011341;-61
2023/03/13 10:59:23;;;;;;;6.20;2.70;;;;;;;7.33;35.35;99998.92;79723;1299;3014889;-63
2023/03/13 11:01:52;;;;;;;5.30;3.00;;;;;;;7.06;35.66;100001.68;78267;1295;3051932;-59
2023/03/13 11:04:27;;;;;;;4.50;2.00;;;;;;;7.47;35.08;99996.25;79481;1294;3013564;-63
2023/03/13 11:07:04;;;;;;;9.40;2.40;;;;;;;7.87;34.30;99994.66;78712;1299;3053411;-59
2023/03/13 11:09:36;;;;;;;6.80;3.40;;;;;;;8.09;34.36;99994.30;78131;1297;3051268;-62
2023/03/13 11:12:16;;;;;;;8.50;3.60;;;;;;;7.99;34.18;99995.27;79420;1300;3012930;-61
2023/03/13 11:14:45;;;;;;;8.00;4.00;;;;;;;8.02;34.15;99994.42;77971;1299;3069660;-62
2023/03/13 11:17:27;;;;;;;6.90;3.60;;;;;;;8.13;33.70;99989.41;79361;1300;3011571;-62
2023/03/13 11:20:22;;;;;;;11.80;4.70;;;;;;;8.11;34.23;99985.32;78159;1299;3058992;-62
2023/03/13 11:23:36;;;;;;;8.10;3.80;;;;;;;8.09;34.17;99982.08;78043;1299;3049528;-62
2023/03/13 11:26:12;;;;;;;6.80;3.70;;;;;;;8.16;33.97;99982.66;78072;1295;3053975;-61
2023/03/13 11:28:52;;;;;;;9.40;4.30;;;;;;;8.23;34.37;99983.61;76197;1295;3049826;-61
2023/03/13 11:31:31;;;;;;;7.70;4.20;;;;;;;8.41;34.26;99977.26;77998;1300;3052398;-61
2023/03/13 11:34:26;;;;;;;8.80;4.00;;;;;;;8.59;34.23;99977.70;77968;1300;3052930;-61
2023/03/13 11:36:57;;;;;;;7.60;2.90;;;;;;;8.61;32.86;99980.40;77934;1301;3068918;-63
2023/03/13 11:39:36;;;;;;;6.80;2.60;;;;;;;8.68;31.48;99976.25;79452;1299;3011834;-64
2023/03/13 11:42:16;;;;;;;4.50;2.40;;;;;;;8.80;31.37;99974.88;78124;1299;3059108;-62
2023/03/13 11:45:09;;;;;;;8.20;3.50;;;;;;;8.33;31.71;99974.77;78002;1295;3051787;-61
2023/03/13 11:47:43;;;;;;;6.50;3.10;;;;;;;8.39;31.47;99975.04;77984;1300;3054160;-60